Murcia, Spain

11:00 AM CET on February 25, 2017 (GMT +0100)
Avenida Reyes Catolicos | | Change Station

Elev 144 ft 38.00 °N, 1.15 °W | Updated 2 minutes ago

Clear
Clear
60.3 °F
Feels Like 60.3 °F
N
0.6
Wind Variable Wind from SW
Gusts 3.1 mph

Today
High -- | Low -- °F
--% Chance of Precip.
Yesterday
High -- | Low -- °F
Precip. -- in
Pressure 30.12 in
Visibility 6.2 miles
Clouds Few 1000 ft
Mostly Cloudy 3000 ft
Dew Point 46 °F
Humidity 59%
Rainfall 0.00 in
Snow Depth Not available.
7:41 AM 6:54 PM
Waning Crescent, 2% visible
METAR LEAL 250930Z 10006KT 070V130 9999 FEW010 BKN030 14/11 Q1020 NOSIG
Pressure 30.12 in
Visibility 6.2 miles
Clouds Few 1000 ft
Mostly Cloudy 3000 ft
Dew Point 46 °F
Humidity 59%
Rainfall 0.00 in
Snow Depth Not available.
7:41 AM 6:54 PM
Waning Crescent, 2% visible
METAR LEAL 250930Z 10006KT 070V130 9999 FEW010 BKN030 14/11 Q1020 NOSIG

Get Your Daily Forecast Email!

Thanks for signing up!

Be on the lookout for a verification email in your inbox.

You'll start receiving the daily forecast at 8 AM.

×

10-Day Weather Forecast

×

Almanac

Astronomy

Feb. 25, 2017 Rise Set
Actual Time
Civil Twilight
Nautical Twilight
Astronomical Twilight
Moon
Length of Visible Light
Length of Day
Tomorrow will be .
, % of the Moon is Illuminated

Today's Extremes

Country Highs Country Lows

Community

WunderPhotos

Upload Photos

1,962,540 photos uploaded!

WunderBlog® & News

Nearby

Air Quality

  Air Quality AQ Index Pollutant
Not available.

Snow Depth

Station Depth Elevation

Earthquake Activity

City Distance Mag. Time & Date
Minimum magnitude displayed is 2.5.

Coastal Water Temperatures

Place Temperature

Stations

Nearby Weather Stations

Station Location Temp. Windchill Dew Point Humidity Wind Precip. Elev Updated Type